Time;durP1;ratioP1;P1;durP2;ratioP2;P2;SDS_P1;SDS_P2;PMS_P1;PMS_P2;Temp;Humidity;BMP_temperature;BMP_pressure;BME280_temperature;BME280_humidity;BME280_pressure;Samples;Min_cycle;Max_cycle;Signal;HPM_P1;HPM_P2
2021/04/23 00:01:03;;;;;;;34.53;24.65;;;307.30;2304.00;;;;;;5052829;28;20025;-72
2021/04/23 00:03:31;;;;;;;35.58;25.65;;;307.30;2304.00;;;;;;5059003;28;20031;-71
2021/04/23 00:06:14;;;;;;;32.85;24.15;;;307.30;2304.00;;;;;;5053816;28;20029;-71
2021/04/23 00:08:44;;;;;;;36.55;25.95;;;307.30;2304.00;;;;;;5058623;28;20029;-71
2021/04/23 00:11:10;;;;;;;34.97;23.95;;;307.30;2304.00;;;;;;5058596;28;20020;-71
2021/04/23 00:13:38;;;;;;;35.63;25.73;;;307.30;2304.00;;;;;;5054850;28;20204;-72
2021/04/23 00:16:04;;;;;;;33.13;25.02;;;307.30;2304.00;;;;;;5053588;28;20024;-71
2021/04/23 00:18:31;;;;;;;34.55;25.73;;;307.30;2304.00;;;;;;5052309;28;20078;-71
2021/04/23 00:20:56;;;;;;;33.22;26.77;;;307.30;2304.00;;;;;;5052053;28;20035;-71
2021/04/23 00:23:22;;;;;;;35.85;26.45;;;307.20;2304.00;;;;;;5052251;28;20017;-72
2021/04/23 00:25:49;;;;;;;41.28;27.42;;;307.20;2304.00;;;;;;5053508;28;20033;-72
2021/04/23 00:28:17;;;;;;;34.25;25.63;;;307.20;2304.00;;;;;;5053136;28;20801;-72
2021/04/23 00:30:47;;;;;;;36.88;28.20;;;307.20;2304.00;;;;;;5053560;28;20029;-72
2021/04/23 00:33:13;;;;;;;39.08;27.60;;;307.20;2304.00;;;;;;5052063;28;20104;-72
2021/04/23 00:35:44;;;;;;;43.85;29.55;;;307.20;2304.00;;;;;;5053858;28;20333;-72
2021/04/23 00:38:13;;;;;;;36.45;27.88;;;307.20;2304.00;;;;;;5055356;28;20476;-72
2021/04/23 00:40:58;;;;;;;35.38;27.40;;;307.20;2304.00;;;;;;5053648;28;20435;-72
2021/04/23 00:43:27;;;;;;;36.65;26.05;;;307.20;2304.00;;;;;;5039390;28;20028;-72
2021/04/23 00:45:53;;;;;;;33.08;27.45;;;307.20;2304.00;;;;;;5060091;28;20029;-72
2021/04/23 00:48:21;;;;;;;35.35;26.38;;;307.30;2304.00;;;;;;5052928;28;20029;-72
2021/04/23 00:50:51;;;;;;;36.65;27.70;;;307.40;2304.00;;;;;;5053279;28;20021;-72
2021/04/23 00:53:26;;;;;;;43.15;30.40;;;307.40;2304.00;;;;;;5053333;28;20039;-72
2021/04/23 00:55:55;;;;;;;39.30;29.73;;;307.40;2304.00;;;;;;5051316;28;20128;-72
2021/04/23 00:58:23;;;;;;;39.83;27.88;;;307.40;2304.00;;;;;;5044610;28;20098;-72
2021/04/23 01:00:58;;;;;;;35.53;27.95;;;307.50;2304.00;;;;;;5052119;28;20039;-72
2021/04/23 01:03:25;;;;;;;36.70;27.65;;;307.50;2304.00;;;;;;5050676;28;20032;-72
2021/04/23 01:05:53;;;;;;;36.50;26.80;;;307.50;2304.00;;;;;;5051260;28;20025;-72
2021/04/23 01:08:24;;;;;;;39.40;28.02;;;307.60;2304.00;;;;;;5052045;28;20029;-72
2021/04/23 01:10:51;;;;;;;36.75;26.05;;;307.60;2304.00;;;;;;5050244;28;20021;-71
2021/04/23 01:13:17;;;;;;;36.58;27.48;;;307.70;2304.00;;;;;;5052490;28;20033;-72
2021/04/23 01:15:43;;;;;;;40.70;27.13;;;307.70;2304.00;;;;;;5051282;28;20021;-72
2021/04/23 01:18:08;;;;;;;35.67;27.15;;;307.70;2304.00;;;;;;5052655;28;20838;-71
2021/04/23 01:20:34;;;;;;;38.38;27.73;;;307.80;2304.00;;;;;;5052761;28;20025;-72
2021/04/23 01:23:00;;;;;;;46.08;30.10;;;307.80;2304.00;;;;;;5053026;28;20104;-72
2021/04/23 01:25:26;;;;;;;37.50;28.58;;;307.80;2304.00;;;;;;5058265;28;20100;-72
2021/04/23 01:27:52;;;;;;;31.27;22.98;;;307.80;2304.00;;;;;;5031390;28;20083;-73
2021/04/23 01:30:21;;;;;;;21.15;16.33;;;307.70;2227.20;;;;;;5051352;28;20020;-75
2021/04/23 01:32:47;;;;;;;23.45;15.30;;;307.60;2124.80;;;;;;5052887;28;20059;-75
2021/04/23 01:35:24;;;;;;;21.88;15.18;;;307.50;2176.00;;;;;;5052353;28;20036;-75
2021/04/23 01:37:50;;;;;;;23.27;15.80;;;307.40;2227.20;;;;;;5051478;28;20112;-76
2021/04/23 01:40:17;;;;;;;19.08;14.63;;;307.30;2252.80;;;;;;5052518;28;20488;-76
2021/04/23 01:42:44;;;;;;;22.70;15.57;;;307.20;2252.80;;;;;;5052420;28;20021;-75
2021/04/23 01:45:11;;;;;;;19.85;14.27;;;282.50;2227.20;;;;;;5052531;28;20032;-74
2021/04/23 01:47:38;;;;;;;24.55;17.92;;;282.50;2252.80;;;;;;5051137;28;20056;-75
2021/04/23 01:50:07;;;;;;;25.35;18.80;;;282.50;2252.80;;;;;;5050278;28;20017;-74
2021/04/23 01:52:33;;;;;;;28.10;21.45;;;307.20;2304.00;;;;;;5047041;28;20022;-74
2021/04/23 01:54:59;;;;;;;32.95;22.27;;;307.20;2304.00;;;;;;5066632;28;20055;-74
2021/04/23 01:57:24;;;;;;;33.95;22.13;;;307.20;2304.00;;;;;;5063706;28;20042;-73
2021/04/23 01:59:50;;;;;;;31.48;21.98;;;307.20;2304.00;;;;;;5064194;28;20117;-73
2021/04/23 02:02:17;;;;;;;34.35;22.17;;;307.20;2304.00;;;;;;5060454;28;20436;-73
2021/04/23 02:04:46;;;;;;;32.80;21.25;;;307.20;2304.00;;;;;;5052072;28;20025;-73
2021/04/23 02:07:12;;;;;;;33.65;22.77;;;307.20;2304.00;;;;;;5052429;28;20079;-72
2021/04/23 02:09:39;;;;;;;31.63;23.60;;;307.20;2304.00;;;;;;5052227;28;20053;-73
2021/04/23 02:12:06;;;;;;;34.58;25.23;;;307.20;2304.00;;;;;;5051449;28;20021;-73
2021/04/23 02:14:31;;;;;;;36.00;25.27;;;307.30;2304.00;;;;;;5051416;28;20372;-72
2021/04/23 02:16:57;;;;;;;36.88;25.02;;;307.30;2304.00;;;;;;5066462;28;20035;-73
2021/04/23 02:19:23;;;;;;;37.75;25.65;;;307.30;2304.00;;;;;;5058059;28;20029;-73
2021/04/23 02:21:50;;;;;;;37.10;24.73;;;307.20;2304.00;;;;;;5065964;28;20099;-73
2021/04/23 02:24:17;;;;;;;30.80;25.67;;;282.50;2278.40;;;;;;5054957;28;20029;-72
2021/04/23 02:26:43;;;;;;;33.13;24.90;;;282.50;2278.40;;;;;;5051751;28;20057;-72
2021/04/23 02:29:12;;;;;;;37.83;27.05;;;282.50;2278.40;;;;;;5052036;28;20028;-73
2021/04/23 02:31:41;;;;;;;38.70;27.95;;;282.50;2278.40;;;;;;5069022;28;20021;-73
2021/04/23 02:34:10;;;;;;;39.50;27.33;;;282.30;2278.40;;;;;;5062314;28;20036;-73
2021/04/23 02:36:36;;;;;;;35.38;26.55;;;282.30;2278.40;;;;;;5054108;28;20104;-74
2021/04/23 02:39:04;;;;;;;34.03;26.25;;;282.30;2278.40;;;;;;5061568;28;20079;-72
2021/04/23 02:41:30;;;;;;;34.00;24.60;;;282.30;2278.40;;;;;;5065927;28;20116;-72
2021/04/23 02:43:57;;;;;;;33.88;25.67;;;282.30;2278.40;;;;;;5054678;28;20109;-72
2021/04/23 02:46:25;;;;;;;33.85;23.63;;;282.30;2278.40;;;;;;5055589;28;20155;-72
2021/04/23 02:48:51;;;;;;;38.95;26.25;;;282.30;2278.40;;;;;;5054366;28;20353;-72
2021/04/23 02:51:23;;;;;;;31.13;22.98;;;282.30;2278.40;;;;;;5053850;28;20040;-72
2021/04/23 02:53:53;;;;;;;29.58;22.20;;;282.30;2278.40;;;;;;5052977;28;20033;-73
2021/04/23 02:56:23;;;;;;;36.60;22.95;;;282.30;2278.40;;;;;;5051517;28;20052;-72
2021/04/23 02:58:49;;;;;;;28.45;19.35;;;282.30;2278.40;;;;;;5061213;28;20032;-72
2021/04/23 03:01:19;;;;;;;29.02;20.38;;;282.30;2278.40;;;;;;5055116;28;20025;-72
2021/04/23 03:03:45;;;;;;;25.73;19.45;;;282.20;2278.40;;;;;;5052541;28;20035;-71
2021/04/23 03:06:12;;;;;;;26.45;19.63;;;282.20;2252.80;;;;;;5062787;28;20060;-72
2021/04/23 03:08:38;;;;;;;29.35;18.30;;;282.20;2278.40;;;;;;5062337;28;20437;-72
2021/04/23 03:11:11;;;;;;;28.63;20.05;;;282.20;2252.80;;;;;;5051195;28;20052;-72
2021/04/23 03:13:37;;;;;;;26.13;18.90;;;282.10;2252.80;;;;;;5051543;28;20029;-72
2021/04/23 03:16:04;;;;;;;24.63;17.90;;;282.10;2252.80;;;;;;5049369;28;20079;-73
2021/04/23 03:18:31;;;;;;;28.23;17.13;;;282.10;2227.20;;;;;;5051943;28;20021;-73
2021/04/23 03:20:59;;;;;;;26.10;18.02;;;282.00;2201.60;;;;;;5053642;28;20036;-72
2021/04/23 03:23:25;;;;;;;22.95;17.10;;;282.10;2227.20;;;;;;5052138;28;20074;-72
2021/04/23 03:25:51;;;;;;;28.98;18.00;;;282.10;2201.60;;;;;;5051406;28;20108;-72
2021/04/23 03:28:17;;;;;;;23.05;15.68;;;282.00;2201.60;;;;;;5049407;28;20025;-72
2021/04/23 03:30:44;;;;;;;19.33;14.68;;;282.00;2176.00;;;;;;5058330;28;20029;-72
2021/04/23 03:33:12;;;;;;;20.80;13.60;;;282.10;2124.80;;;;;;5052535;28;20017;-72
2021/04/23 03:35:38;;;;;;;21.80;12.88;;;282.10;2073.60;;;;;;5062315;28;20484;-72
2021/04/23 03:38:08;;;;;;;23.83;15.15;;;282.10;2073.60;;;;;;5054757;28;20116;-72
2021/04/23 03:40:36;;;;;;;20.85;15.65;;;282.10;2124.80;;;;;;5053611;28;20430;-72
2021/04/23 03:43:02;;;;;;;22.67;15.43;;;282.00;2124.80;;;;;;5053209;28;20033;-72
2021/04/23 03:45:28;;;;;;;19.92;14.48;;;282.00;2124.80;;;;;;5066502;28;20025;-72
2021/04/23 03:47:54;;;;;;;23.92;14.75;;;282.00;2099.20;;;;;;5056408;28;20035;-72
2021/04/23 03:50:25;;;;;;;18.25;13.45;;;282.00;2099.20;;;;;;5052469;28;20031;-72
2021/04/23 03:52:55;;;;;;;22.55;14.43;;;282.00;2124.80;;;;;;5053544;28;20191;-73
2021/04/23 03:55:34;;;;;;;25.08;16.77;;;282.00;2124.80;;;;;;5060442;28;20056;-72
2021/04/23 03:58:01;;;;;;;24.75;15.70;;;282.00;2150.40;;;;;;5053290;28;20492;-72
2021/04/23 04:00:40;;;;;;;21.90;16.27;;;282.00;2150.40;;;;;;5054944;28;20029;-73
2021/04/23 04:03:06;;;;;;;27.58;17.00;;;282.00;2124.80;;;;;;5065270;28;20031;-72
2021/04/23 04:05:32;;;;;;;20.85;14.63;;;282.00;2176.00;;;;;;5071080;28;20468;-72
2021/04/23 04:07:58;;;;;;;25.67;15.85;;;282.10;2150.40;;;;;;5063286;28;20035;-72
2021/04/23 04:10:23;;;;;;;20.25;14.60;;;282.10;2124.80;;;;;;5060389;28;20023;-72
2021/04/23 04:12:49;;;;;;;20.23;15.00;;;282.10;2124.80;;;;;;5053640;28;20391;-72
2021/04/23 04:15:16;;;;;;;22.10;16.10;;;282.10;2099.20;;;;;;5053467;28;20017;-72
2021/04/23 04:17:43;;;;;;;23.10;15.15;;;282.10;2124.80;;;;;;5052914;28;20032;-72
2021/04/23 04:20:14;;;;;;;21.63;14.63;;;282.10;2124.80;;;;;;5053995;28;20025;-72
2021/04/23 04:22:41;;;;;;;23.10;14.00;;;282.10;2124.80;;;;;;5052840;28;20112;-72
2021/04/23 04:25:10;;;;;;;22.23;14.82;;;282.10;2099.20;;;;;;5053950;28;20041;-72
2021/04/23 04:27:36;;;;;;;23.73;14.85;;;282.10;2124.80;;;;;;5053003;28;20060;-72
2021/04/23 04:30:03;;;;;;;27.58;15.50;;;282.20;2099.20;;;;;;5058187;28;20032;-73
2021/04/23 04:32:29;;;;;;;26.63;14.93;;;282.20;2099.20;;;;;;5060253;28;20036;-73
2021/04/23 04:34:54;;;;;;;25.63;15.57;;;282.20;2099.20;;;;;;5050456;28;20037;-73
2021/04/23 04:37:20;;;;;;;21.00;13.77;;;282.20;2099.20;;;;;;5049372;28;20082;-73
2021/04/23 04:39:46;;;;;;;24.63;15.88;;;282.20;2099.20;;;;;;5035880;28;20041;-73
2021/04/23 04:42:12;;;;;;;19.73;14.35;;;282.10;2124.80;;;;;;5051899;28;20676;-73
2021/04/23 04:44:38;;;;;;;30.55;15.15;;;282.10;2124.80;;;;;;5056188;28;20104;-72
2021/04/23 04:47:04;;;;;;;33.75;15.57;;;282.20;2099.20;;;;;;5051976;28;20431;-72
2021/04/23 04:49:30;;;;;;;24.75;15.13;;;282.20;2099.20;;;;;;5057418;28;20062;-72
2021/04/23 04:51:56;;;;;;;22.90;14.68;;;282.20;2099.20;;;;;;5062509;28;20495;-72
2021/04/23 04:54:21;;;;;;;32.22;15.35;;;282.20;2099.20;;;;;;5069873;28;20495;-73
2021/04/23 04:56:47;;;;;;;30.33;15.55;;;282.30;2073.60;;;;;;5065723;28;20021;-73
2021/04/23 04:59:13;;;;;;;22.85;15.10;;;282.30;2073.60;;;;;;5050491;28;20017;-72
2021/04/23 05:01:39;;;;;;;29.80;15.27;;;282.40;2073.60;;;;;;5067227;28;20548;-73
2021/04/23 05:04:05;;;;;;;25.67;15.73;;;282.40;2048.00;;;;;;5053413;28;20025;-73
2021/04/23 05:06:30;;;;;;;20.05;13.60;;;282.50;2048.00;;;;;;5067004;28;20017;-73
2021/04/23 05:08:56;;;;;;;23.17;15.57;;;282.40;2022.40;;;;;;5060800;28;20041;-73
2021/04/23 05:11:22;;;;;;;21.70;15.20;;;282.40;2022.40;;;;;;5060147;28;20523;-73
2021/04/23 05:13:48;;;;;;;23.17;14.73;;;282.50;2022.40;;;;;;5052963;28;20087;-73
2021/04/23 05:16:13;;;;;;;21.02;13.57;;;307.20;2048.00;;;;;;5053238;28;20079;-73
2021/04/23 05:18:39;;;;;;;22.13;12.68;;;307.30;1996.80;;;;;;5052857;28;20690;-73
2021/04/23 05:21:05;;;;;;;21.90;13.88;;;307.40;1996.80;;;;;;5057382;28;20040;-72
2021/04/23 05:23:31;;;;;;;24.33;13.60;;;307.40;1971.20;;;;;;5052577;28;20021;-73
2021/04/23 05:25:56;;;;;;;23.63;13.32;;;307.60;1996.80;;;;;;5059625;28;20029;-72
2021/04/23 05:28:22;;;;;;;23.50;14.23;;;307.70;1971.20;;;;;;5049667;28;20020;-73
2021/04/23 05:30:48;;;;;;;25.48;13.88;;;307.70;1971.20;;;;;;5061211;28;20358;-73
2021/04/23 05:33:14;;;;;;;19.35;13.48;;;307.70;1971.20;;;;;;5042907;28;20354;-73
2021/04/23 05:35:41;;;;;;;21.85;14.02;;;307.80;1971.20;;;;;;5057229;28;20150;-72
2021/04/23 05:38:07;;;;;;;22.83;14.75;;;307.90;1971.20;;;;;;5058648;28;20028;-72
2021/04/23 05:40:51;;;;;;;27.67;17.17;;;307.90;1971.20;;;;;;5057430;28;20095;-72
2021/04/23 05:43:18;;;;;;;27.05;16.58;;;308.00;2022.40;;;;;;5043592;28;20028;-72
2021/04/23 05:45:46;;;;;;;26.85;15.18;;;307.90;2022.40;;;;;;5058887;28;20101;-72
2021/04/23 05:48:12;;;;;;;25.33;15.20;;;307.90;1996.80;;;;;;5068634;28;20035;-72
2021/04/23 05:50:38;;;;;;;39.42;18.95;;;307.70;1996.80;;;;;;5059937;28;20383;-72
2021/04/23 05:53:04;;;;;;;26.38;15.93;;;307.60;2022.40;;;;;;5063406;28;20020;-72
2021/04/23 05:55:30;;;;;;;29.63;16.60;;;307.60;2022.40;;;;;;5055085;28;20124;-72
2021/04/23 05:58:00;;;;;;;26.00;16.23;;;307.60;1996.80;;;;;;5049701;28;20162;-72
2021/04/23 06:00:28;;;;;;;30.20;15.60;;;307.70;1996.80;;;;;;5051030;28;20032;-72
2021/04/23 06:02:55;;;;;;;25.77;16.85;;;307.80;1971.20;;;;;;5051941;28;20048;-71
2021/04/23 06:05:26;;;;;;;27.45;16.52;;;308.10;1945.60;;;;;;5051987;28;20082;-72
2021/04/23 06:07:52;;;;;;;23.85;15.82;;;333.00;1971.20;;;;;;5052123;28;20025;-72
2021/04/23 06:10:18;;;;;;;27.08;14.27;;;333.10;1894.40;;;;;;5053865;28;20376;-73
2021/04/23 06:12:44;;;;;;;23.42;14.68;;;333.20;1894.40;;;;;;5060256;28;20070;-72
2021/04/23 06:15:11;;;;;;;19.33;14.18;;;333.10;1868.80;;;;;;5053086;28;20036;-72
2021/04/23 06:17:37;;;;;;;18.90;12.98;;;333.00;1817.60;;;;;;5050405;28;20029;-72
2021/04/23 06:20:11;;;;;;;28.00;13.98;;;333.00;1843.20;;;;;;5056609;28;20039;-72
2021/04/23 06:22:38;;;;;;;19.88;11.63;;;333.10;1766.40;;;;;;5046468;28;20040;-72
2021/04/23 06:25:07;;;;;;;23.52;12.65;;;333.10;1715.20;;;;;;5063482;28;20040;-72
2021/04/23 06:27:32;;;;;;;27.52;13.70;;;333.30;1715.20;;;;;;5044179;28;20042;-71
2021/04/23 06:29:59;;;;;;;14.88;9.65;;;333.30;1664.00;;;;;;5060445;28;20384;-72
2021/04/23 06:32:24;;;;;;;17.50;10.18;;;333.40;1612.80;;;;;;5071968;28;20073;-72
2021/04/23 06:34:50;;;;;;;25.17;10.82;;;333.40;1587.20;;;;;;5062583;28;20477;-72
2021/04/23 06:37:16;;;;;;;19.40;10.07;;;333.30;1587.20;;;;;;5059395;28;20093;-72
2021/04/23 06:39:42;;;;;;;19.67;10.27;;;333.50;1587.20;;;;;;5055631;28;20029;-72
2021/04/23 06:42:07;;;;;;;15.73;10.00;;;333.50;1587.20;;;;;;5057679;28;20511;-72
2021/04/23 06:44:33;;;;;;;19.63;11.43;;;333.40;1561.60;;;;;;5050968;28;20503;-71
2021/04/23 06:46:59;;;;;;;23.52;9.55;;;333.40;1587.20;;;;;;5050690;28;20033;-72
2021/04/23 06:49:24;;;;;;;20.45;10.05;;;333.50;1536.00;;;;;;5050080;28;20508;-73
2021/04/23 06:51:50;;;;;;;20.75;8.07;;;333.70;1536.00;;;;;;5049820;28;20021;-72
2021/04/23 06:54:16;;;;;;;21.10;9.45;;;358.50;1433.60;;;;;;5051411;28;20459;-73
2021/04/23 06:56:42;;;;;;;15.63;8.13;;;358.60;1382.40;;;;;;5051911;28;20017;-72
2021/04/23 06:59:08;;;;;;;14.30;8.80;;;358.70;1382.40;;;;;;5048725;28;20033;-72
2021/04/23 07:01:33;;;;;;;18.10;9.13;;;358.60;1356.80;;;;;;5050513;28;20021;-73
2021/04/23 07:03:59;;;;;;;16.85;9.27;;;358.70;1408.00;;;;;;5051491;28;20477;-72
2021/04/23 07:06:25;;;;;;;17.48;8.70;;;358.90;1382.40;;;;;;5051699;28;20084;-73
2021/04/23 07:08:50;;;;;;;15.98;6.40;;;359.10;1356.80;;;;;;5051328;28;20033;-72
2021/04/23 07:11:17;;;;;;;13.40;7.93;;;359.00;1305.60;;;;;;5074117;28;20108;-72
2021/04/23 07:13:43;;;;;;;15.35;10.27;;;358.90;1331.20;;;;;;5074091;28;20483;-73
2021/04/23 07:16:09;;;;;;;16.10;9.35;;;358.90;1331.20;;;;;;5060489;28;20029;-72
2021/04/23 07:18:35;;;;;;;13.07;7.78;;;359.00;1331.20;;;;;;5059062;28;20496;-73
2021/04/23 07:21:01;;;;;;;12.73;8.48;;;359.10;1254.40;;;;;;5062098;28;20025;-72
2021/04/23 07:23:27;;;;;;;16.50;8.20;;;359.10;1280.00;;;;;;5061445;28;20029;-74
2021/04/23 07:25:52;;;;;;;15.13;8.27;;;359.10;1280.00;;;;;;5058672;28;20491;-72
2021/04/23 07:28:18;;;;;;;17.75;8.82;;;359.20;1254.40;;;;;;5060330;28;20020;-72
2021/04/23 07:30:44;;;;;;;14.27;8.63;;;384.00;1280.00;;;;;;5064868;28;20073;-73
2021/04/23 07:33:13;;;;;;;18.52;8.45;;;384.10;1203.20;;;;;;5067050;28;20487;-73
2021/04/23 07:35:44;;;;;;;14.20;6.95;;;384.10;1228.80;;;;;;5057538;28;20418;-72
2021/04/23 07:38:11;;;;;;;15.18;7.25;;;384.10;1203.20;;;;;;5059305;28;20025;-73
2021/04/23 07:40:37;;;;;;;19.33;8.65;;;384.40;1177.60;;;;;;5062248;28;20044;-73
2021/04/23 07:43:03;;;;;;;18.85;8.60;;;384.60;1126.40;;;;;;5064111;28;20024;-73
2021/04/23 07:45:30;;;;;;;16.52;9.13;;;384.90;1126.40;;;;;;5064226;28;20033;-73
2021/04/23 07:47:57;;;;;;;19.42;7.88;;;409.60;1177.60;;;;;;5061806;28;20083;-73
2021/04/23 07:50:25;;;;;;;16.23;7.18;;;409.60;1100.80;;;;;;5073067;28;20039;-74
2021/04/23 07:52:52;;;;;;;19.48;9.85;;;409.70;1126.40;;;;;;5056311;28;20020;-73
2021/04/23 07:55:18;;;;;;;16.95;7.95;;;409.90;1152.00;;;;;;5060401;28;20052;-73
2021/04/23 07:57:45;;;;;;;13.55;7.13;;;410.00;1100.80;;;;;;5055804;28;21542;-72
2021/04/23 08:00:12;;;;;;;11.85;7.32;;;410.20;1075.20;;;;;;5066724;28;20036;-73
2021/04/23 08:02:40;;;;;;;18.08;9.80;;;410.10;1100.80;;;;;;5058797;28;20136;-73
2021/04/23 08:05:07;;;;;;;13.65;8.07;;;410.30;1126.40;;;;;;5056118;28;20103;-73
2021/04/23 08:07:33;;;;;;;14.27;9.85;;;410.30;1126.40;;;;;;5057291;28;20029;-73
2021/04/23 08:09:59;;;;;;;14.05;9.07;;;410.10;1126.40;;;;;;5062135;28;20066;-73
2021/04/23 08:12:25;;;;;;;21.63;10.50;;;435.20;1126.40;;;;;;5060082;28;20033;-73
2021/04/23 08:14:51;;;;;;;13.10;8.15;;;410.50;1126.40;;;;;;5061278;28;20028;-72
2021/04/23 08:17:17;;;;;;;14.80;9.93;;;435.50;1100.80;;;;;;5058601;28;20033;-73
2021/04/23 08:19:42;;;;;;;19.35;10.18;;;435.50;1100.80;;;;;;5052164;28;20057;-73
2021/04/23 08:22:08;;;;;;;14.77;9.00;;;435.40;1126.40;;;;;;5056181;28;20468;-73
2021/04/23 08:24:35;;;;;;;16.23;10.18;;;435.30;1100.80;;;;;;5057886;28;20113;-73
2021/04/23 08:27:00;;;;;;;13.18;8.88;;;435.60;1075.20;;;;;;5058369;28;20031;-73
2021/04/23 08:29:26;;;;;;;15.85;9.45;;;435.90;1049.60;;;;;;5063140;28;20033;-73
2021/04/23 08:31:52;;;;;;;17.30;9.13;;;435.90;1049.60;;;;;;5061536;28;20027;-73
2021/04/23 08:34:18;;;;;;;15.82;9.60;;;435.50;1100.80;;;;;;5053355;28;20384;-73
2021/04/23 08:36:44;;;;;;;15.57;9.85;;;435.60;1100.80;;;;;;5059178;28;20036;-73
2021/04/23 08:39:11;;;;;;;16.70;10.30;;;436.00;1100.80;;;;;;5064169;28;20021;-72
2021/04/23 08:41:38;;;;;;;19.40;10.82;;;435.90;1075.20;;;;;;5056640;28;20865;-73
2021/04/23 08:44:05;;;;;;;16.55;9.20;;;460.80;1100.80;;;;;;5056502;28;20482;-72
2021/04/23 08:46:34;;;;;;;14.90;9.70;;;436.00;1049.60;;;;;;5066724;28;20040;-73
2021/04/23 08:49:01;;;;;;;15.02;10.20;;;435.90;1024.00;;;;;;5059242;28;20056;-73
2021/04/23 08:51:28;;;;;;;18.35;10.07;;;435.90;1024.00;;;;;;5067419;28;20020;-73
2021/04/23 08:53:55;;;;;;;15.00;9.23;;;436.00;1049.60;;;;;;5059426;28;20032;-73
2021/04/23 08:56:21;;;;;;;14.90;8.93;;;436.10;998.40;;;;;;5055801;28;20040;-73
2021/04/23 08:58:48;;;;;;;15.55;10.07;;;460.80;1024.00;;;;;;5060082;28;20024;-72
2021/04/23 09:01:14;;;;;;;17.10;9.98;;;435.80;1049.60;;;;;;5061748;28;20062;-73
2021/04/23 09:03:40;;;;;;;20.00;10.95;;;435.80;1024.00;;;;;;5062276;28;20094;-73
2021/04/23 09:06:14;;;;;;;14.73;9.20;;;461.00;1024.00;;;;;;5063625;28;20029;-72
2021/04/23 09:08:55;;;;;;;15.30;10.05;;;461.10;1024.00;;;;;;5056072;28;20116;-73
2021/04/23 09:11:31;;;;;;;16.83;9.98;;;461.50;998.40;;;;;;5068552;28;20031;-74
2021/04/23 09:13:57;;;;;;;;;;;461.50;998.40;;;;;;5069250;28;20136;-74
2021/04/23 09:16:26;;;;;;;17.17;9.47;;;486.40;1024.00;;;;;;5057696;28;20003;-74
2021/04/23 09:18:55;;;;;;;18.27;9.88;;;486.70;972.80;;;;;;5066205;28;20035;-74
2021/04/23 09:21:20;;;;;;;18.70;10.82;;;486.40;972.80;;;;;;5068902;28;20093;-73
2021/04/23 09:23:51;;;;;;;19.58;9.02;;;486.40;1024.00;;;;;;5062559;28;20484;-73
2021/04/23 09:26:35;;;;;;;14.60;9.70;;;486.50;972.80;;;;;;5056071;28;20061;-73
2021/04/23 09:29:03;;;;;;;11.05;7.82;;;487.10;947.20;;;;;;5052592;28;20492;-74
2021/04/23 09:31:31;;;;;;;20.00;10.68;;;487.00;870.40;;;;;;5053403;28;20028;-73
2021/04/23 09:34:04;;;;;;;20.40;10.18;;;486.80;921.60;;;;;;5052332;28;20507;-73
2021/04/23 09:36:36;;;;;;;15.70;9.50;;;486.40;947.20;;;;;;5053014;28;20052;-73
2021/04/23 09:39:09;;;;;;;16.77;10.85;;;461.70;972.80;;;;;;5049579;28;20029;-73
2021/04/23 09:41:36;;;;;;;15.07;8.70;;;487.10;947.20;;;;;;5047281;28;20039;-73
2021/04/23 09:44:02;;;;;;;16.25;9.52;;;486.60;921.60;;;;;;5043221;28;20031;-74
2021/04/23 09:46:32;;;;;;;12.82;8.85;;;486.40;947.20;;;;;;5043256;28;20025;-73
2021/04/23 09:49:15;;;;;;;13.10;8.95;;;486.70;947.20;;;;;;5041443;28;20039;-73
2021/04/23 09:51:41;;;;;;;16.15;7.93;;;486.90;896.00;;;;;;5043388;28;20017;-73
2021/04/23 09:54:21;;;;;;;11.43;8.02;;;486.70;844.80;;;;;;5041204;28;20029;-72
2021/04/23 09:56:48;;;;;;;11.65;7.88;;;487.10;870.40;;;;;;5044505;28;20021;-72
2021/04/23 09:59:21;;;;;;;15.35;8.77;;;487.10;870.40;;;;;;5060968;28;20045;-72
2021/04/23 10:02:02;;;;;;;12.30;8.55;;;487.10;870.40;;;;;;5045753;28;20124;-72
2021/04/23 10:04:33;;;;;;;14.30;8.43;;;512.00;870.40;;;;;;5039398;28;20036;-72
2021/04/23 10:07:09;;;;;;;12.18;8.40;;;512.10;870.40;;;;;;5047524;28;20033;-73
2021/04/23 10:09:57;;;;;;;14.40;9.18;;;512.10;819.20;;;;;;5064109;28;20031;-72
2021/04/23 10:12:31;;;;;;;18.90;9.98;;;512.50;844.80;;;;;;5046787;28;20037;-73
2021/04/23 10:15:33;;;;;;;12.52;10.10;;;512.60;870.40;;;;;;5044813;28;20037;-72
2021/04/23 10:18:00;;;;;;;20.00;10.50;;;512.50;844.80;;;;;;5039104;28;20044;-73
2021/04/23 10:20:41;;;;;;;20.00;9.25;;;512.40;870.40;;;;;;5038677;28;20489;-73
2021/04/23 10:23:10;;;;;;;13.18;8.93;;;512.60;819.20;;;;;;5049807;28;20036;-73
2021/04/23 10:25:36;;;;;;;15.60;8.63;;;512.60;819.20;;;;;;5046245;28;20025;-75
2021/04/23 10:28:05;;;;;;;12.02;9.70;;;537.70;819.20;;;;;;5044691;28;20369;-76
2021/04/23 10:30:33;;;;;;;11.88;8.45;;;538.20;819.20;;;;;;5051652;28;20025;-74
2021/04/23 10:33:04;;;;;;;14.90;8.57;;;538.00;793.60;;;;;;5051721;28;20035;-73
2021/04/23 10:35:30;;;;;;;14.70;8.73;;;538.40;768.00;;;;;;5051100;28;20024;-73
2021/04/23 10:38:08;;;;;;;9.82;7.78;;;538.50;768.00;;;;;;5051279;28;20059;-73
2021/04/23 10:40:35;;;;;;;15.77;8.48;;;538.50;793.60;;;;;;5047816;28;20494;-73
2021/04/23 10:43:05;;;;;;;14.93;8.98;;;563.20;819.20;;;;;;5051118;28;20429;-73
2021/04/23 10:45:49;;;;;;;15.77;10.20;;;538.50;742.40;;;;;;5054658;28;20028;-72
2021/04/23 10:48:15;;;;;;;16.15;8.40;;;538.10;819.20;;;;;;5048971;28;20032;-73
2021/04/23 10:50:42;;;;;;;25.83;9.85;;;537.80;793.60;;;;;;5054219;28;20021;-73
2021/04/23 10:53:18;;;;;;;18.58;9.52;;;538.10;793.60;;;;;;5055516;28;20048;-73
2021/04/23 10:56:06;;;;;;;12.23;7.40;;;538.10;768.00;;;;;;5069193;28;20045;-73
2021/04/23 10:58:32;;;;;;;14.10;7.82;;;538.50;742.40;;;;;;5049711;28;20029;-73
2021/04/23 11:01:18;;;;;;;13.32;7.75;;;563.50;768.00;;;;;;5048473;28;20883;-76
2021/04/23 11:03:56;;;;;;;18.70;9.00;;;563.70;768.00;;;;;;5044132;28;20116;-74
2021/04/23 11:06:21;;;;;;;17.08;8.20;;;563.50;742.40;;;;;;5048390;28;20127;-75
2021/04/23 11:08:59;;;;;;;13.15;7.57;;;588.80;716.80;;;;;;5042116;28;20156;-74
2021/04/23 11:11:33;;;;;;;14.65;7.88;;;589.30;742.40;;;;;;5072358;28;20070;-75
2021/04/23 11:14:27;;;;;;;12.88;7.40;;;589.00;742.40;;;;;;5048318;28;20039;-75
2021/04/23 11:17:15;;;;;;;16.95;8.90;;;564.10;768.00;;;;;;5054692;28;20071;-74
2021/04/23 11:19:41;;;;;;;10.07;7.55;;;563.40;819.20;;;;;;5045797;28;20040;-75
2021/04/23 11:22:10;;;;;;;15.02;8.90;;;563.80;768.00;;;;;;5042946;28;20112;-75
2021/04/23 11:24:37;;;;;;;11.80;6.90;;;564.10;768.00;;;;;;5049038;28;20060;-75
2021/04/23 11:27:11;;;;;;;19.10;8.30;;;563.80;768.00;;;;;;5053036;28;20029;-75
2021/04/23 11:29:40;;;;;;;14.93;7.03;;;588.90;742.40;;;;;;5054514;28;20036;-75
2021/04/23 11:32:21;;;;;;;16.88;9.30;;;588.80;742.40;;;;;;5053279;28;20496;-75
2021/04/23 11:34:48;;;;;;;12.73;6.50;;;564.10;742.40;;;;;;5052135;28;20094;-74
2021/04/23 11:37:20;;;;;;;12.73;7.22;;;588.80;716.80;;;;;;5052222;28;20021;-75
2021/04/23 11:39:50;;;;;;;11.75;5.93;;;589.00;742.40;;;;;;5052389;28;20079;-75
2021/04/23 11:42:21;;;;;;;12.50;6.30;;;589.40;716.80;;;;;;5063483;28;20025;-75
2021/04/23 11:45:03;;;;;;;15.30;6.65;;;589.30;742.40;;;;;;5047898;28;20033;-75
2021/04/23 11:47:39;;;;;;;12.13;8.00;;;588.80;742.40;;;;;;5045021;28;20439;-74
2021/04/23 11:50:27;;;;;;;12.60;7.43;;;589.00;716.80;;;;;;5041753;28;20496;-75
2021/04/23 11:52:58;;;;;;;13.70;6.32;;;589.10;716.80;;;;;;5053097;28;20431;-74
2021/04/23 11:55:33;;;;;;;13.80;7.57;;;589.60;691.20;;;;;;5050295;28;20077;-75
2021/04/23 11:58:09;;;;;;;9.27;6.13;;;589.50;716.80;;;;;;5054501;28;20506;-74
2021/04/23 12:00:36;;;;;;;11.35;7.13;;;563.90;742.40;;;;;;5045388;28;20060;-74
2021/04/23 12:03:05;;;;;;;9.07;5.63;;;563.20;742.40;;;;;;5043856;28;20132;-74
2021/04/23 12:05:31;;;;;;;9.75;5.72;;;538.50;691.20;;;;;;5043102;28;20032;-74
2021/04/23 12:08:18;;;;;;;15.40;6.95;;;563.20;742.40;;;;;;5044140;28;20030;-75
2021/04/23 12:10:48;;;;;;;21.13;6.47;;;588.90;691.20;;;;;;5049247;28;20048;-75
2021/04/23 12:13:16;;;;;;;11.05;4.53;;;588.90;716.80;;;;;;5055691;28;20033;-75